sensor_id;sensor_type;location;lat;lon;timestamp;pressure;altitude;pressure_sealevel;temperature;humidity
32197;BME280;18697;42.770;23.400;2022-12-18T00:00:43;96389.47;;;8.86;86.03
32197;BME280;18697;42.770;23.400;2022-12-18T00:03:09;96389.06;;;9.01;84.88
32197;BME280;18697;42.770;23.400;2022-12-18T00:05:35;96390.69;;;9.14;83.46
32197;BME280;18697;42.770;23.400;2022-12-18T00:08:00;96400.09;;;9.33;81.99
32197;BME280;18697;42.770;23.400;2022-12-18T00:10:27;96406.00;;;9.35;81.85
32197;BME280;18697;42.770;23.400;2022-12-18T00:12:52;96408.66;;;9.39;80.92
32197;BME280;18697;42.770;23.400;2022-12-18T00:15:18;96413.44;;;9.38;81.02
32197;BME280;18697;42.770;23.400;2022-12-18T00:17:43;96406.97;;;9.29;80.28
32197;BME280;18697;42.770;23.400;2022-12-18T00:20:09;96409.03;;;9.25;80.22
32197;BME280;18697;42.770;23.400;2022-12-18T00:22:34;96420.25;;;9.05;80.15
32197;BME280;18697;42.770;23.400;2022-12-18T00:25:00;96419.78;;;8.77;81.53
32197;BME280;18697;42.770;23.400;2022-12-18T00:27:25;96422.53;;;8.61;82.43
32197;BME280;18697;42.770;23.400;2022-12-18T00:29:50;96425.78;;;8.40;83.48
32197;BME280;18697;42.770;23.400;2022-12-18T00:32:16;96422.63;;;8.21;84.12
32197;BME280;18697;42.770;23.400;2022-12-18T00:34:41;96423.31;;;8.09;84.81
32197;BME280;18697;42.770;23.400;2022-12-18T00:37:06;96429.13;;;7.95;85.55
32197;BME280;18697;42.770;23.400;2022-12-18T00:39:32;96430.22;;;7.81;86.35
32197;BME280;18697;42.770;23.400;2022-12-18T00:41:57;96424.19;;;7.67;86.99
32197;BME280;18697;42.770;23.400;2022-12-18T00:44:41;96427.81;;;7.64;88.15
32197;BME280;18697;42.770;23.400;2022-12-18T00:47:06;96426.09;;;7.50;87.34
32197;BME280;18697;42.770;23.400;2022-12-18T00:49:32;96438.41;;;7.45;88.45
32197;BME280;18697;42.770;23.400;2022-12-18T00:51:57;96430.66;;;7.40;88.58
32197;BME280;18697;42.770;23.400;2022-12-18T00:54:23;96434.38;;;7.50;88.60
32197;BME280;18697;42.770;23.400;2022-12-18T00:56:48;96446.09;;;7.57;88.36
32197;BME280;18697;42.770;23.400;2022-12-18T00:59:14;96444.81;;;7.62;87.18
32197;BME280;18697;42.770;23.400;2022-12-18T01:01:39;96447.50;;;7.66;87.21
32197;BME280;18697;42.770;23.400;2022-12-18T01:04:05;96450.84;;;7.77;86.84
32197;BME280;18697;42.770;23.400;2022-12-18T01:06:30;96445.25;;;7.80;85.65
32197;BME280;18697;42.770;23.400;2022-12-18T01:08:56;96446.72;;;7.85;85.46
32197;BME280;18697;42.770;23.400;2022-12-18T01:11:21;96453.97;;;7.79;85.09
32197;BME280;18697;42.770;23.400;2022-12-18T01:13:47;96439.84;;;7.73;85.07
32197;BME280;18697;42.770;23.400;2022-12-18T01:16:14;96452.91;;;7.73;85.52
32197;BME280;18697;42.770;23.400;2022-12-18T01:18:40;96460.22;;;7.83;85.04
32197;BME280;18697;42.770;23.400;2022-12-18T01:21:10;96458.00;;;7.94;84.99
32197;BME280;18697;42.770;23.400;2022-12-18T01:23:37;96464.59;;;7.80;84.13
32197;BME280;18697;42.770;23.400;2022-12-18T01:26:11;96470.78;;;7.88;84.41
32197;BME280;18697;42.770;23.400;2022-12-18T01:28:37;96467.50;;;7.93;83.94
32197;BME280;18697;42.770;23.400;2022-12-18T01:31:12;96482.53;;;7.92;83.23
32197;BME280;18697;42.770;23.400;2022-12-18T01:33:38;96469.72;;;7.82;83.32
32197;BME280;18697;42.770;23.400;2022-12-18T01:36:03;96471.53;;;7.69;83.57
32197;BME280;18697;42.770;23.400;2022-12-18T01:38:28;96471.63;;;7.65;84.22
32197;BME280;18697;42.770;23.400;2022-12-18T01:40:58;96472.88;;;7.61;83.81
32197;BME280;18697;42.770;23.400;2022-12-18T01:43:41;96482.16;;;7.50;83.89
32197;BME280;18697;42.770;23.400;2022-12-18T01:46:06;96488.03;;;7.52;84.02
32197;BME280;18697;42.770;23.400;2022-12-18T01:48:32;96485.34;;;7.49;83.67
32197;BME280;18697;42.770;23.400;2022-12-18T01:50:57;96490.81;;;7.52;84.08
32197;BME280;18697;42.770;23.400;2022-12-18T01:53:28;96483.94;;;7.41;83.65
32197;BME280;18697;42.770;23.400;2022-12-18T01:55:57;96485.94;;;7.40;83.47
32197;BME280;18697;42.770;23.400;2022-12-18T01:58:58;96496.34;;;7.52;83.59
32197;BME280;18697;42.770;23.400;2022-12-18T02:01:25;96496.47;;;7.45;82.87
32197;BME280;18697;42.770;23.400;2022-12-18T02:03:51;96488.19;;;7.45;82.65
32197;BME280;18697;42.770;23.400;2022-12-18T02:09:07;96495.91;;;7.34;82.84
32197;BME280;18697;42.770;23.400;2022-12-18T02:12:16;96502.94;;;7.15;82.66
32197;BME280;18697;42.770;23.400;2022-12-18T02:14:44;96506.66;;;7.05;82.69
32197;BME280;18697;42.770;23.400;2022-12-18T02:17:22;96505.16;;;7.01;83.43
32197;BME280;18697;42.770;23.400;2022-12-18T02:23:10;96518.59;;;6.99;83.61
32197;BME280;18697;42.770;23.400;2022-12-18T02:28:56;96522.13;;;6.99;83.28
32197;BME280;18697;42.770;23.400;2022-12-18T02:31:27;96518.13;;;7.04;82.94
32197;BME280;18697;42.770;23.400;2022-12-18T02:33:57;96525.25;;;7.01;83.08
32197;BME280;18697;42.770;23.400;2022-12-18T02:36:26;96519.53;;;6.88;82.78
32197;BME280;18697;42.770;23.400;2022-12-18T02:38:54;96525.47;;;6.87;83.51
32197;BME280;18697;42.770;23.400;2022-12-18T02:41:21;96527.19;;;6.77;83.70
32197;BME280;18697;42.770;23.400;2022-12-18T02:43:48;96536.59;;;6.83;83.94
32197;BME280;18697;42.770;23.400;2022-12-18T02:46:27;96520.94;;;6.73;83.62
32197;BME280;18697;42.770;23.400;2022-12-18T02:49:01;96535.97;;;6.72;83.95
32197;BME280;18697;42.770;23.400;2022-12-18T02:52:25;96529.47;;;6.59;83.81
32197;BME280;18697;42.770;23.400;2022-12-18T02:57:06;96538.47;;;6.63;83.52
32197;BME280;18697;42.770;23.400;2022-12-18T02:59:44;96542.50;;;6.58;83.98
32197;BME280;18697;42.770;23.400;2022-12-18T03:02:33;96536.13;;;6.62;83.81
32197;BME280;18697;42.770;23.400;2022-12-18T03:05:10;96541.13;;;6.70;83.48
32197;BME280;18697;42.770;23.400;2022-12-18T03:07:51;96539.38;;;6.56;82.93
32197;BME280;18697;42.770;23.400;2022-12-18T03:10:24;96540.19;;;6.53;83.41
32197;BME280;18697;42.770;23.400;2022-12-18T03:12:54;96537.47;;;6.50;83.45
32197;BME280;18697;42.770;23.400;2022-12-18T03:15:31;96545.84;;;6.43;83.21
32197;BME280;18697;42.770;23.400;2022-12-18T03:18:04;96545.81;;;6.46;83.45
32197;BME280;18697;42.770;23.400;2022-12-18T03:20:34;96548.25;;;6.41;83.68
32197;BME280;18697;42.770;23.400;2022-12-18T03:23:06;96557.81;;;6.33;83.54
32197;BME280;18697;42.770;23.400;2022-12-18T03:25:38;96565.53;;;6.45;83.95
32197;BME280;18697;42.770;23.400;2022-12-18T03:28:05;96569.00;;;6.52;82.86
32197;BME280;18697;42.770;23.400;2022-12-18T03:30:37;96563.06;;;6.54;82.38
32197;BME280;18697;42.770;23.400;2022-12-18T03:33:12;96579.97;;;6.56;82.02
32197;BME280;18697;42.770;23.400;2022-12-18T03:35:42;96585.41;;;6.63;81.63
32197;BME280;18697;42.770;23.400;2022-12-18T03:38:09;96591.22;;;6.69;81.22
32197;BME280;18697;42.770;23.400;2022-12-18T03:40:50;96590.56;;;6.61;80.61
32197;BME280;18697;42.770;23.400;2022-12-18T03:46:07;96601.16;;;6.66;80.58
32197;BME280;18697;42.770;23.400;2022-12-18T03:48:40;96603.03;;;6.69;80.39
32197;BME280;18697;42.770;23.400;2022-12-18T03:51:12;96605.94;;;6.62;80.08
32197;BME280;18697;42.770;23.400;2022-12-18T03:56:13;96612.44;;;6.75;80.32
32197;BME280;18697;42.770;23.400;2022-12-18T03:58:42;96610.88;;;6.74;79.14
32197;BME280;18697;42.770;23.400;2022-12-18T04:01:11;96609.88;;;6.61;79.67
32197;BME280;18697;42.770;23.400;2022-12-18T04:03:37;96620.00;;;6.41;79.91
32197;BME280;18697;42.770;23.400;2022-12-18T04:06:04;96616.03;;;6.42;80.34
32197;BME280;18697;42.770;23.400;2022-12-18T04:08:31;96618.38;;;6.43;79.87
32197;BME280;18697;42.770;23.400;2022-12-18T04:10:59;96625.19;;;6.35;79.96
32197;BME280;18697;42.770;23.400;2022-12-18T04:13:28;96620.44;;;6.36;80.00
32197;BME280;18697;42.770;23.400;2022-12-18T04:15:54;96629.00;;;6.45;80.26
32197;BME280;18697;42.770;23.400;2022-12-18T04:18:19;96640.13;;;6.38;80.21
32197;BME280;18697;42.770;23.400;2022-12-18T04:20:45;96641.56;;;6.49;80.07
32197;BME280;18697;42.770;23.400;2022-12-18T04:23:10;96647.75;;;6.61;79.81
32197;BME280;18697;42.770;23.400;2022-12-18T04:25:36;96646.97;;;6.60;79.38
32197;BME280;18697;42.770;23.400;2022-12-18T04:28:02;96652.91;;;6.58;79.31
32197;BME280;18697;42.770;23.400;2022-12-18T04:30:27;96635.09;;;6.63;79.36
32197;BME280;18697;42.770;23.400;2022-12-18T04:32:52;96647.72;;;6.64;78.74
32197;BME280;18697;42.770;23.400;2022-12-18T04:35:18;96660.63;;;6.71;78.85
32197;BME280;18697;42.770;23.400;2022-12-18T04:37:43;96649.44;;;6.81;78.92
32197;BME280;18697;42.770;23.400;2022-12-18T04:40:09;96659.69;;;6.81;77.38
32197;BME280;18697;42.770;23.400;2022-12-18T04:42:35;96669.59;;;6.78;77.70
32197;BME280;18697;42.770;23.400;2022-12-18T04:45:00;96666.88;;;6.75;77.80
32197;BME280;18697;42.770;23.400;2022-12-18T04:47:26;96671.41;;;6.62;77.92
32197;BME280;18697;42.770;23.400;2022-12-18T04:49:51;96677.59;;;6.69;77.99
32197;BME280;18697;42.770;23.400;2022-12-18T04:52:16;96674.25;;;6.54;78.21
32197;BME280;18697;42.770;23.400;2022-12-18T04:54:42;96684.47;;;6.57;77.74
32197;BME280;18697;42.770;23.400;2022-12-18T04:57:07;96689.28;;;6.50;78.59
32197;BME280;18697;42.770;23.400;2022-12-18T04:59:33;96680.66;;;6.44;78.50
32197;BME280;18697;42.770;23.400;2022-12-18T05:01:58;96702.22;;;6.19;78.43
32197;BME280;18697;42.770;23.400;2022-12-18T05:04:23;96696.91;;;6.39;78.41
32197;BME280;18697;42.770;23.400;2022-12-18T05:06:49;96702.91;;;6.30;78.35
32197;BME280;18697;42.770;23.400;2022-12-18T05:09:14;96706.81;;;6.33;78.10
32197;BME280;18697;42.770;23.400;2022-12-18T05:11:40;96704.81;;;6.37;77.64
32197;BME280;18697;42.770;23.400;2022-12-18T05:14:05;96702.00;;;6.40;77.54
32197;BME280;18697;42.770;23.400;2022-12-18T05:16:30;96707.69;;;6.60;77.38
32197;BME280;18697;42.770;23.400;2022-12-18T05:18:56;96713.31;;;6.53;76.08
32197;BME280;18697;42.770;23.400;2022-12-18T05:21:22;96711.06;;;6.41;76.30
32197;BME280;18697;42.770;23.400;2022-12-18T05:23:47;96719.94;;;6.59;76.57
32197;BME280;18697;42.770;23.400;2022-12-18T05:26:16;96725.38;;;6.66;76.10
32197;BME280;18697;42.770;23.400;2022-12-18T05:28:42;96728.00;;;6.43;76.01
32197;BME280;18697;42.770;23.400;2022-12-18T05:31:08;96727.97;;;6.46;76.49
32197;BME280;18697;42.770;23.400;2022-12-18T05:33:34;96729.38;;;6.62;75.49
32197;BME280;18697;42.770;23.400;2022-12-18T05:36:02;96733.44;;;6.50;75.87
32197;BME280;18697;42.770;23.400;2022-12-18T05:38:29;96736.75;;;6.34;76.07
32197;BME280;18697;42.770;23.400;2022-12-18T05:40:55;96741.81;;;6.39;76.18
32197;BME280;18697;42.770;23.400;2022-12-18T05:43:22;96748.94;;;6.37;76.39
32197;BME280;18697;42.770;23.400;2022-12-18T05:45:49;96747.66;;;6.48;76.33
32197;BME280;18697;42.770;23.400;2022-12-18T05:48:14;96748.84;;;6.47;75.80
32197;BME280;18697;42.770;23.400;2022-12-18T05:50:41;96770.22;;;6.40;75.32
32197;BME280;18697;42.770;23.400;2022-12-18T05:53:07;96768.56;;;6.46;75.20
32197;BME280;18697;42.770;23.400;2022-12-18T05:55:38;96768.53;;;6.49;75.13
32197;BME280;18697;42.770;23.400;2022-12-18T05:58:04;96766.56;;;6.50;75.18
32197;BME280;18697;42.770;23.400;2022-12-18T06:00:31;96776.72;;;6.60;75.20
32197;BME280;18697;42.770;23.400;2022-12-18T06:02:57;96782.59;;;6.62;74.73
32197;BME280;18697;42.770;23.400;2022-12-18T06:05:23;96775.22;;;6.52;74.76
32197;BME280;18697;42.770;23.400;2022-12-18T06:07:48;96783.81;;;6.61;75.07
32197;BME280;18697;42.770;23.400;2022-12-18T06:10:14;96793.22;;;6.67;74.26
32197;BME280;18697;42.770;23.400;2022-12-18T06:12:39;96786.56;;;6.61;73.58
32197;BME280;18697;42.770;23.400;2022-12-18T06:15:05;96788.47;;;6.68;73.97
32197;BME280;18697;42.770;23.400;2022-12-18T06:17:32;96785.44;;;6.55;73.70
32197;BME280;18697;42.770;23.400;2022-12-18T06:19:57;96789.16;;;6.75;74.10
32197;BME280;18697;42.770;23.400;2022-12-18T06:22:23;96789.97;;;6.72;72.63
32197;BME280;18697;42.770;23.400;2022-12-18T06:24:48;96799.31;;;6.48;73.72
32197;BME280;18697;42.770;23.400;2022-12-18T06:27:14;96806.25;;;6.22;74.19
32197;BME280;18697;42.770;23.400;2022-12-18T06:29:39;96797.72;;;6.02;75.16
32197;BME280;18697;42.770;23.400;2022-12-18T06:32:05;96802.19;;;5.85;75.90
32197;BME280;18697;42.770;23.400;2022-12-18T06:34:30;96816.41;;;5.77;76.65
32197;BME280;18697;42.770;23.400;2022-12-18T06:36:56;96809.78;;;5.67;77.12
32197;BME280;18697;42.770;23.400;2022-12-18T06:39:21;96812.63;;;5.53;77.17
32197;BME280;18697;42.770;23.400;2022-12-18T06:41:47;96802.78;;;5.48;77.03
32197;BME280;18697;42.770;23.400;2022-12-18T06:44:12;96796.16;;;5.35;77.59
32197;BME280;18697;42.770;23.400;2022-12-18T06:46:37;96816.63;;;5.34;78.18
32197;BME280;18697;42.770;23.400;2022-12-18T06:49:03;96825.72;;;5.31;78.37
32197;BME280;18697;42.770;23.400;2022-12-18T06:51:28;96832.00;;;5.32;78.91
32197;BME280;18697;42.770;23.400;2022-12-18T06:53:54;96826.88;;;5.30;79.11
32197;BME280;18697;42.770;23.400;2022-12-18T06:56:19;96826.13;;;5.26;79.03
32197;BME280;18697;42.770;23.400;2022-12-18T06:58:45;96832.41;;;5.30;78.55
32197;BME280;18697;42.770;23.400;2022-12-18T07:01:11;96839.88;;;5.33;78.34
32197;BME280;18697;42.770;23.400;2022-12-18T07:03:38;96843.81;;;5.32;78.76
32197;BME280;18697;42.770;23.400;2022-12-18T07:06:04;96840.28;;;5.24;78.49
32197;BME280;18697;42.770;23.400;2022-12-18T07:08:31;96845.78;;;5.28;78.66
32197;BME280;18697;42.770;23.400;2022-12-18T07:10:57;96842.25;;;5.24;78.96
32197;BME280;18697;42.770;23.400;2022-12-18T07:13:22;96839.50;;;5.27;78.73
32197;BME280;18697;42.770;23.400;2022-12-18T07:15:48;96836.00;;;5.20;78.75
32197;BME280;18697;42.770;23.400;2022-12-18T07:18:13;96849.00;;;5.19;78.59
32197;BME280;18697;42.770;23.400;2022-12-18T07:20:39;96856.03;;;5.20;78.60
32197;BME280;18697;42.770;23.400;2022-12-18T07:23:05;96852.53;;;5.20;79.17
32197;BME280;18697;42.770;23.400;2022-12-18T07:25:34;96849.00;;;5.19;79.08
32197;BME280;18697;42.770;23.400;2022-12-18T07:28:00;96857.22;;;5.26;79.20
32197;BME280;18697;42.770;23.400;2022-12-18T07:30:26;96853.28;;;5.24;79.01
32197;BME280;18697;42.770;23.400;2022-12-18T07:32:51;96861.56;;;5.20;78.96
32197;BME280;18697;42.770;23.400;2022-12-18T07:35:17;96871.00;;;5.23;78.68
32197;BME280;18697;42.770;23.400;2022-12-18T07:37:42;96871.78;;;5.23;78.62
32197;BME280;18697;42.770;23.400;2022-12-18T07:40:08;96867.84;;;5.21;78.49
32197;BME280;18697;42.770;23.400;2022-12-18T07:42:34;96874.53;;;5.23;78.58
32197;BME280;18697;42.770;23.400;2022-12-18T07:45:01;96872.16;;;5.25;78.35
32197;BME280;18697;42.770;23.400;2022-12-18T07:47:28;96873.72;;;5.26;78.04
32197;BME280;18697;42.770;23.400;2022-12-18T07:49:53;96876.88;;;5.28;78.12
32197;BME280;18697;42.770;23.400;2022-12-18T07:52:19;96883.19;;;5.25;78.24
32197;BME280;18697;42.770;23.400;2022-12-18T07:54:45;96882.00;;;5.23;77.81
32197;BME280;18697;42.770;23.400;2022-12-18T07:57:10;96882.44;;;5.18;78.24
32197;BME280;18697;42.770;23.400;2022-12-18T07:59:36;96887.19;;;5.10;77.96
32197;BME280;18697;42.770;23.400;2022-12-18T08:02:01;96892.72;;;5.07;78.32
32197;BME280;18697;42.770;23.400;2022-12-18T08:04:27;96894.28;;;5.01;78.49
32197;BME280;18697;42.770;23.400;2022-12-18T08:06:52;96891.94;;;4.95;79.06
32197;BME280;18697;42.770;23.400;2022-12-18T08:09:18;96896.66;;;4.99;79.30
32197;BME280;18697;42.770;23.400;2022-12-18T08:11:43;96904.53;;;4.97;79.09
32197;BME280;18697;42.770;23.400;2022-12-18T08:14:08;96902.97;;;4.95;79.66
32197;BME280;18697;42.770;23.400;2022-12-18T08:16:35;96904.44;;;5.21;82.87
32197;BME280;18697;42.770;23.400;2022-12-18T08:19:00;96911.03;;;5.52;79.46
32197;BME280;18697;42.770;23.400;2022-12-18T08:21:28;96913.97;;;6.01;79.40
32197;BME280;18697;42.770;23.400;2022-12-18T08:23:56;96915.25;;;5.89;74.65
32197;BME280;18697;42.770;23.400;2022-12-18T08:26:23;96926.66;;;5.80;75.10
32197;BME280;18697;42.770;23.400;2022-12-18T08:28:49;96931.06;;;5.64;75.70
32197;BME280;18697;42.770;23.400;2022-12-18T08:31:15;96929.56;;;5.48;76.07
32197;BME280;18697;42.770;23.400;2022-12-18T08:33:41;96926.06;;;5.30;76.39
32197;BME280;18697;42.770;23.400;2022-12-18T08:36:07;96936.72;;;5.24;76.71
32197;BME280;18697;42.770;23.400;2022-12-18T08:38:33;96935.16;;;5.20;76.51
32197;BME280;18697;42.770;23.400;2022-12-18T08:41:07;96932.44;;;5.16;77.66
32197;BME280;18697;42.770;23.400;2022-12-18T08:43:32;96940.69;;;5.13;78.14
32197;BME280;18697;42.770;23.400;2022-12-18T08:46:21;96935.97;;;5.17;77.67
32197;BME280;18697;42.770;23.400;2022-12-18T08:48:51;96943.06;;;5.14;77.96
32197;BME280;18697;42.770;23.400;2022-12-18T08:51:17;96947.38;;;5.15;78.41
32197;BME280;18697;42.770;23.400;2022-12-18T08:53:43;96948.56;;;5.11;78.47
32197;BME280;18697;42.770;23.400;2022-12-18T08:56:09;96939.91;;;5.16;78.54
32197;BME280;18697;42.770;23.400;2022-12-18T08:58:35;96939.84;;;5.23;78.05
32197;BME280;18697;42.770;23.400;2022-12-18T09:01:01;96939.06;;;5.26;78.31
32197;BME280;18697;42.770;23.400;2022-12-18T09:03:27;96935.13;;;5.27;78.25
32197;BME280;18697;42.770;23.400;2022-12-18T09:05:52;96933.94;;;5.28;77.85
32197;BME280;18697;42.770;23.400;2022-12-18T09:08:18;96933.56;;;5.26;77.72
32197;BME280;18697;42.770;23.400;2022-12-18T09:10:45;96932.41;;;5.20;77.70
32197;BME280;18697;42.770;23.400;2022-12-18T09:13:11;96940.25;;;5.25;78.00
32197;BME280;18697;42.770;23.400;2022-12-18T09:15:44;96937.50;;;5.25;77.73
32197;BME280;18697;42.770;23.400;2022-12-18T09:18:11;96943.78;;;5.25;77.97
32197;BME280;18697;42.770;23.400;2022-12-18T09:20:37;96937.09;;;5.23;77.44
32197;BME280;18697;42.770;23.400;2022-12-18T09:23:02;96930.81;;;5.22;77.18
32197;BME280;18697;42.770;23.400;2022-12-18T09:25:29;96943.00;;;5.28;77.82
32197;BME280;18697;42.770;23.400;2022-12-18T09:28:12;96946.91;;;5.31;78.30
32197;BME280;18697;42.770;23.400;2022-12-18T09:30:40;96941.41;;;5.38;78.45
32197;BME280;18697;42.770;23.400;2022-12-18T09:33:05;96942.19;;;5.35;78.20
32197;BME280;18697;42.770;23.400;2022-12-18T09:35:30;96945.34;;;5.37;77.61
32197;BME280;18697;42.770;23.400;2022-12-18T09:37:56;96948.50;;;5.28;77.31
32197;BME280;18697;42.770;23.400;2022-12-18T09:40:24;96952.81;;;5.29;77.01
32197;BME280;18697;42.770;23.400;2022-12-18T09:43:00;96953.19;;;5.42;77.49
32197;BME280;18697;42.770;23.400;2022-12-18T09:45:31;96946.50;;;5.43;77.20
32197;BME280;18697;42.770;23.400;2022-12-18T09:48:03;96938.22;;;5.47;77.33
32197;BME280;18697;42.770;23.400;2022-12-18T09:50:34;96941.72;;;5.58;77.37
32197;BME280;18697;42.770;23.400;2022-12-18T09:53:15;96955.50;;;5.61;77.07
32197;BME280;18697;42.770;23.400;2022-12-18T09:55:45;96944.84;;;5.67;77.05
32197;BME280;18697;42.770;23.400;2022-12-18T09:58:34;96934.63;;;5.64;76.47
32197;BME280;18697;42.770;23.400;2022-12-18T10:01:11;96949.97;;;5.69;77.06
32197;BME280;18697;42.770;23.400;2022-12-18T10:03:37;96942.84;;;5.71;77.24
32197;BME280;18697;42.770;23.400;2022-12-18T10:08:43;96929.47;;;5.73;76.86
32197;BME280;18697;42.770;23.400;2022-12-18T10:14:45;96938.91;;;5.72;76.39
32197;BME280;18697;42.770;23.400;2022-12-18T10:17:46;96946.00;;;5.73;76.43
32197;BME280;18697;42.770;23.400;2022-12-18T10:20:20;96935.78;;;5.67;76.02
32197;BME280;18697;42.770;23.400;2022-12-18T10:28:03;96934.19;;;5.69;76.62
32197;BME280;18697;42.770;23.400;2022-12-18T10:30:32;96946.75;;;5.81;76.56
32197;BME280;18697;42.770;23.400;2022-12-18T10:33:01;96937.28;;;5.85;76.84
32197;BME280;18697;42.770;23.400;2022-12-18T10:35:27;96936.19;;;6.38;82.50
32197;BME280;18697;42.770;23.400;2022-12-18T10:38:05;96935.66;;;7.02;78.45
32197;BME280;18697;42.770;23.400;2022-12-18T10:40:31;96934.53;;;7.37;74.77
32197;BME280;18697;42.770;23.400;2022-12-18T10:51:07;96930.25;;;7.63;69.34
32197;BME280;18697;42.770;23.400;2022-12-18T10:53:34;96932.59;;;7.34;70.82
32197;BME280;18697;42.770;23.400;2022-12-18T10:56:03;96926.50;;;7.12;71.33
32197;BME280;18697;42.770;23.400;2022-12-18T10:58:35;96931.78;;;6.96;72.17
32197;BME280;18697;42.770;23.400;2022-12-18T11:03:35;96927.31;;;6.68;73.55
32197;BME280;18697;42.770;23.400;2022-12-18T11:06:18;96917.16;;;6.54;74.39
32197;BME280;18697;42.770;23.400;2022-12-18T11:08:58;96925.03;;;6.56;75.23
32197;BME280;18697;42.770;23.400;2022-12-18T11:11:24;96924.28;;;6.52;75.49
32197;BME280;18697;42.770;23.400;2022-12-18T11:16:19;96939.25;;;6.51;75.49
32197;BME280;18697;42.770;23.400;2022-12-18T11:18:44;96930.97;;;6.51;76.00
32197;BME280;18697;42.770;23.400;2022-12-18T11:21:11;96934.16;;;6.49;75.64
32197;BME280;18697;42.770;23.400;2022-12-18T11:23:47;96934.94;;;6.50;76.22
32197;BME280;18697;42.770;23.400;2022-12-18T11:26:14;96941.63;;;6.52;75.64
32197;BME280;18697;42.770;23.400;2022-12-18T11:28:53;96945.13;;;6.56;76.08
32197;BME280;18697;42.770;23.400;2022-12-18T11:31:32;96942.38;;;6.56;74.81
32197;BME280;18697;42.770;23.400;2022-12-18T11:34:02;96946.69;;;6.61;74.86
32197;BME280;18697;42.770;23.400;2022-12-18T11:36:36;96941.47;;;6.70;76.01
32197;BME280;18697;42.770;23.400;2022-12-18T11:39:31;96954.84;;;6.72;74.80
32197;BME280;18697;42.770;23.400;2022-12-18T11:42:04;96942.72;;;6.66;74.17
32197;BME280;18697;42.770;23.400;2022-12-18T11:44:41;96934.03;;;6.64;74.41
32197;BME280;18697;42.770;23.400;2022-12-18T11:47:18;96927.75;;;6.63;74.54
32197;BME280;18697;42.770;23.400;2022-12-18T11:49:48;96942.31;;;6.64;74.96
32197;BME280;18697;42.770;23.400;2022-12-18T11:52:24;96946.34;;;6.55;75.21
32197;BME280;18697;42.770;23.400;2022-12-18T11:54:56;96940.78;;;6.59;75.42
32197;BME280;18697;42.770;23.400;2022-12-18T12:00:18;96935.31;;;6.52;75.17
32197;BME280;18697;42.770;23.400;2022-12-18T12:03:02;96941.97;;;6.58;75.48
32197;BME280;18697;42.770;23.400;2022-12-18T12:05:48;96941.53;;;6.63;75.29
32197;BME280;18697;42.770;23.400;2022-12-18T12:22:35;96939.84;;;6.73;74.98
32197;BME280;18697;42.770;23.400;2022-12-18T12:31:29;96952.41;;;6.81;75.23
32197;BME280;18697;42.770;23.400;2022-12-18T12:34:18;96951.97;;;6.86;74.90
32197;BME280;18697;42.770;23.400;2022-12-18T12:39:35;96948.44;;;6.85;73.06
32197;BME280;18697;42.770;23.400;2022-12-18T12:42:08;96952.38;;;6.84;73.59
32197;BME280;18697;42.770;23.400;2022-12-18T12:44:58;96951.56;;;6.87;73.61
32197;BME280;18697;42.770;23.400;2022-12-18T12:47:30;96950.78;;;6.87;73.05
32197;BME280;18697;42.770;23.400;2022-12-18T12:49:59;96940.13;;;6.89;72.86
32197;BME280;18697;42.770;23.400;2022-12-18T12:53:02;96942.91;;;6.85;71.90
32197;BME280;18697;42.770;23.400;2022-12-18T12:55:31;96944.94;;;6.78;71.76
32197;BME280;18697;42.770;23.400;2022-12-18T13:01:18;96954.44;;;6.73;73.36
32197;BME280;18697;42.770;23.400;2022-12-18T13:03:58;96961.13;;;6.76;72.69
32197;BME280;18697;42.770;23.400;2022-12-18T13:06:44;96950.88;;;6.76;72.11
32197;BME280;18697;42.770;23.400;2022-12-18T13:09:12;96966.72;;;6.69;72.43
32197;BME280;18697;42.770;23.400;2022-12-18T13:11:45;96964.72;;;6.73;72.15
32197;BME280;18697;42.770;23.400;2022-12-18T13:14:35;96963.66;;;6.59;71.78
32197;BME280;18697;42.770;23.400;2022-12-18T13:17:34;96969.22;;;6.52;71.40
32197;BME280;18697;42.770;23.400;2022-12-18T13:20:11;96980.72;;;6.44;71.33
32197;BME280;18697;42.770;23.400;2022-12-18T13:22:48;96981.56;;;6.34;71.25
32197;BME280;18697;42.770;23.400;2022-12-18T13:25:46;96984.28;;;6.41;72.00
32197;BME280;18697;42.770;23.400;2022-12-18T13:28:14;96987.09;;;6.34;71.37
32197;BME280;18697;42.770;23.400;2022-12-18T13:38:25;96990.22;;;6.36;72.06
32197;BME280;18697;42.770;23.400;2022-12-18T13:41:22;97000.88;;;6.34;72.20
32197;BME280;18697;42.770;23.400;2022-12-18T13:44:12;97008.41;;;6.30;72.59
32197;BME280;18697;42.770;23.400;2022-12-18T13:46:46;97006.03;;;6.28;72.81
32197;BME280;18697;42.770;23.400;2022-12-18T13:51:43;97008.81;;;6.24;73.05
32197;BME280;18697;42.770;23.400;2022-12-18T13:56:52;97012.75;;;6.23;73.27
32197;BME280;18697;42.770;23.400;2022-12-18T13:59:21;97014.34;;;6.24;72.50
32197;BME280;18697;42.770;23.400;2022-12-18T14:01:58;97011.63;;;6.14;73.21
32197;BME280;18697;42.770;23.400;2022-12-18T14:04:28;97017.53;;;6.16;73.16
32197;BME280;18697;42.770;23.400;2022-12-18T14:07:07;97015.16;;;6.14;72.92
32197;BME280;18697;42.770;23.400;2022-12-18T14:09:37;97012.44;;;6.11;72.67
32197;BME280;18697;42.770;23.400;2022-12-18T14:12:18;97027.75;;;6.19;72.16
32197;BME280;18697;42.770;23.400;2022-12-18T14:15:11;97028.56;;;6.16;71.56
32197;BME280;18697;42.770;23.400;2022-12-18T14:17:42;97019.91;;;6.10;71.60
32197;BME280;18697;42.770;23.400;2022-12-18T14:20:14;97030.94;;;6.10;71.89
32197;BME280;18697;42.770;23.400;2022-12-18T14:22:43;97031.34;;;6.12;72.10
32197;BME280;18697;42.770;23.400;2022-12-18T14:25:22;97034.09;;;6.12;71.53
32197;BME280;18697;42.770;23.400;2022-12-18T14:30:28;97039.59;;;6.16;71.39
32197;BME280;18697;42.770;23.400;2022-12-18T14:33:22;97034.06;;;6.16;71.41
32197;BME280;18697;42.770;23.400;2022-12-18T14:38:27;97044.31;;;6.19;71.26
32197;BME280;18697;42.770;23.400;2022-12-18T14:40:54;97045.09;;;6.19;70.45
32197;BME280;18697;42.770;23.400;2022-12-18T14:43:21;97039.19;;;6.17;70.73